Time;durP1;ratioP1;P1;durP2;ratioP2;P2;SDS_P1;SDS_P2;PMS_P1;PMS_P2;Temp;Humidity;BMP_temperature;BMP_pressure;BME280_temperature;BME280_humidity;BME280_pressure;Samples;Min_cycle;Max_cycle;Signal;HPM_P1;HPM_P2
2022/08/25 00:01:19;;;;;;;3.55;2.05;;;;;;;;;;10490971;28;20024;-49
2022/08/25 00:06:20;;;;;;;2.47;1.65;;;;;;;;;;10487413;28;20100;-51
2022/08/25 00:11:23;;;;;;;5.47;1.65;;;;;;;;;;10491768;28;20091;-50
2022/08/25 00:16:25;;;;;;;2.78;2.08;;;;;;;;;;10467916;28;20028;-49
2022/08/25 00:21:27;;;;;;;2.78;1.65;;;;;;;;;;10488326;28;20432;-50
2022/08/25 00:26:29;;;;;;;2.97;1.70;;;;;;;;;;10468492;28;20072;-51
2022/08/25 00:31:29;;;;;;;2.45;1.83;;;;;;;;;;10486719;28;20075;-48
2022/08/25 00:36:30;;;;;;;2.83;1.70;;;;;;;;;;10464854;28;20083;-56
2022/08/25 00:41:31;;;;;;;2.03;1.60;;;;;;;;;;10490602;28;20028;-48
2022/08/25 00:46:55;;;;;;;2.58;1.45;;;;;;;;;;10491118;28;20028;-49
2022/08/25 00:52:14;;;;;;;1.77;1.67;;;;;;;;;;10489860;28;20036;-53
2022/08/25 00:57:21;;;;;;;2.15;1.80;;;;;;;;;;10486678;28;20403;-53
2022/08/25 01:02:22;;;;;;;1.60;1.50;;;;;;;;;;10479577;28;20503;-47
2022/08/25 01:07:23;;;;;;;2.58;1.80;;;;;;;;;;10488405;28;20082;-50
2022/08/25 01:12:23;;;;;;;2.83;1.70;;;;;;;;;;10475960;28;20522;-48
2022/08/25 01:17:26;;;;;;;2.97;1.45;;;;;;;;;;10480765;28;20086;-48
2022/08/25 01:22:27;;;;;;;2.08;1.48;;;;;;;;;;10488561;28;20085;-48
2022/08/25 01:27:28;;;;;;;2.92;1.40;;;;;;;;;;10473527;28;20024;-50
2022/08/25 01:32:33;;;;;;;2.75;1.58;;;;;;;;;;10483043;28;20020;-49
2022/08/25 01:37:34;;;;;;;1.45;1.35;;;;;;;;;;10459520;28;20096;-49
2022/08/25 01:42:58;;;;;;;2.22;1.70;;;;;;;;;;10479789;28;20132;-49
2022/08/25 01:47:58;;;;;;;1.65;1.38;;;;;;;;;;10475198;28;20025;-57
2022/08/25 01:53:17;;;;;;;1.30;1.20;;;;;;;;;;10475249;28;20031;-50
2022/08/25 01:58:24;;;;;;;1.50;1.40;;;;;;;;;;10489360;28;20078;-51
2022/08/25 02:03:25;;;;;;;2.30;1.48;;;;;;;;;;10486275;28;20375;-50
2022/08/25 02:08:26;;;;;;;1.95;1.33;;;;;;;;;;10463463;28;20472;-51
2022/08/25 02:13:27;;;;;;;1.50;1.33;;;;;;;;;;10479460;28;20032;-51
2022/08/25 02:18:28;;;;;;;3.70;1.40;;;;;;;;;;10488741;28;20100;-52
2022/08/25 02:23:28;;;;;;;1.98;1.52;;;;;;;;;;10475908;28;20229;-50
2022/08/25 02:28:29;;;;;;;5.45;1.40;;;;;;;;;;10473982;28;20020;-51
2022/08/25 02:33:30;;;;;;;1.83;1.35;;;;;;;;;;10487815;28;20041;-50
2022/08/25 02:38:31;;;;;;;2.75;1.23;;;;;;;;;;10493534;28;20099;-50
2022/08/25 02:43:31;;;;;;;2.08;1.30;;;;;;;;;;10486326;28;20058;-49
2022/08/25 02:48:32;;;;;;;3.40;1.45;;;;;;;;;;10481350;28;20020;-51
2022/08/25 02:53:34;;;;;;;2.30;1.30;;;;;;;;;;10476546;28;20398;-51
2022/08/25 02:58:37;;;;;;;1.42;1.20;;;;;;;;;;10468985;28;20373;-50
2022/08/25 03:03:39;;;;;;;2.72;1.30;;;;;;;;;;10490006;22;20160;-59
2022/08/25 03:08:41;;;;;;;1.20;1.10;;;;;;;;;;10378876;28;20062;-59
2022/08/25 03:13:41;;;;;;;1.38;1.27;;;;;;;;;;10370626;28;20030;-59
2022/08/25 03:18:42;;;;;;;1.75;1.20;;;;;;;;;;10369976;28;20053;-59
2022/08/25 03:23:44;;;;;;;7.57;1.50;;;;;;;;;;10369774;28;20026;-59
2022/08/25 03:28:44;;;;;;;1.52;1.20;;;;;;;;;;10369966;28;20044;-60
2022/08/25 03:33:45;;;;;;;1.30;1.20;;;;;;;;;;10369816;28;20034;-60
2022/08/25 03:38:45;;;;;;;1.63;1.10;;;;;;;;;;10370080;28;20065;-60
2022/08/25 03:43:47;;;;;;;1.38;1.17;;;;;;;;;;10348501;28;20049;-60
2022/08/25 03:48:48;;;;;;;1.40;1.30;;;;;;;;;;10366614;28;20025;-60
2022/08/25 03:53:49;;;;;;;1.45;1.20;;;;;;;;;;10368883;28;20052;-60
2022/08/25 03:58:50;;;;;;;1.90;1.30;;;;;;;;;;10369086;28;20033;-60
2022/08/25 04:03:51;;;;;;;1.42;1.20;;;;;;;;;;10368000;28;20064;-60
2022/08/25 04:08:51;;;;;;;0.90;0.90;;;;;;;;;;10367971;28;20033;-59
2022/08/25 04:13:56;;;;;;;1.70;1.00;;;;;;;;;;10365573;28;20034;-59
2022/08/25 04:19:00;;;;;;;1.40;1.10;;;;;;;;;;10367771;28;20048;-60
2022/08/25 04:24:01;;;;;;;1.65;1.00;;;;;;;;;;10367332;28;20034;-60
2022/08/25 04:29:05;;;;;;;3.28;1.25;;;;;;;;;;10367138;28;20390;-61
2022/08/25 04:34:08;;;;;;;1.88;1.17;;;;;;;;;;10366832;28;20085;-59
2022/08/25 04:39:08;;;;;;;1.15;1.05;;;;;;;;;;10368289;28;20064;-60
2022/08/25 04:44:09;;;;;;;1.20;1.10;;;;;;;;;;10352412;28;20053;-59
2022/08/25 04:49:11;;;;;;;3.03;1.10;;;;;;;;;;10366972;28;20671;-59
2022/08/25 04:54:21;;;;;;;2.20;1.05;;;;;;;;;;10366324;28;20029;-59
2022/08/25 04:59:22;;;;;;;1.27;1.17;;;;;;;;;;10381696;28;20030;-60
2022/08/25 05:04:22;;;;;;;0.98;0.98;;;;;;;;;;10366168;28;20049;-60
2022/08/25 05:09:24;;;;;;;1.05;1.00;;;;;;;;;;10359240;28;20489;-60
2022/08/25 05:14:25;;;;;;;6.97;1.33;;;;;;;;;;10360993;28;20045;-61
2022/08/25 05:19:26;;;;;;;1.17;1.00;;;;;;;;;;10364619;28;20021;-59
2022/08/25 05:24:26;;;;;;;8.85;1.15;;;;;;;;;;10366071;28;20021;-60
2022/08/25 05:29:27;;;;;;;2.13;1.10;;;;;;;;;;10363850;28;20029;-59
2022/08/25 05:34:28;;;;;;;1.33;1.13;;;;;;;;;;10360827;28;20029;-60
2022/08/25 05:39:31;;;;;;;1.88;1.20;;;;;;;;;;10359962;28;20078;-59
2022/08/25 05:44:31;;;;;;;1.75;1.13;;;;;;;;;;10360104;28;20038;-59
2022/08/25 05:49:32;;;;;;;5.60;1.17;;;;;;;;;;10364261;28;20026;-62
2022/08/25 05:54:33;;;;;;;1.60;1.50;;;;;;;;;;10363300;28;20026;-59
2022/08/25 05:59:34;;;;;;;3.30;1.38;;;;;;;;;;10363861;28;20028;-62
2022/08/25 06:04:35;;;;;;;6.25;1.35;;;;;;;;;;10363036;28;20101;-62
2022/08/25 06:09:40;;;;;;;2.50;1.23;;;;;;;;;;10364282;28;20018;-61
2022/08/25 06:14:41;;;;;;;4.40;1.90;;;;;;;;;;10371344;28;20033;-62
2022/08/25 06:19:43;;;;;;;2.97;1.40;;;;;;;;;;10372474;28;20025;-62
2022/08/25 06:24:43;;;;;;;1.95;1.40;;;;;;;;;;10370976;28;20053;-61
2022/08/25 06:29:44;;;;;;;3.72;1.58;;;;;;;;;;10371644;28;21351;-61
2022/08/25 06:34:45;;;;;;;2.55;1.67;;;;;;;;;;10371293;28;20122;-61
2022/08/25 06:39:45;;;;;;;2.47;1.52;;;;;;;;;;10371548;28;20049;-61
2022/08/25 06:44:46;;;;;;;3.20;1.20;;;;;;;;;;10368394;28;20375;-60
2022/08/25 06:49:47;;;;;;;2.35;1.40;;;;;;;;;;10371464;28;20053;-61
2022/08/25 06:54:48;;;;;;;2.20;1.58;;;;;;;;;;10370892;28;20505;-61
2022/08/25 06:59:49;;;;;;;1.50;1.35;;;;;;;;;;10370846;28;20069;-61
2022/08/25 07:04:51;;;;;;;2.22;1.42;;;;;;;;;;10371173;28;20042;-61
2022/08/25 07:09:52;;;;;;;1.55;1.33;;;;;;;;;;10368418;28;20398;-60
2022/08/25 07:14:52;;;;;;;1.40;1.30;;;;;;;;;;10370781;28;20029;-62
2022/08/25 07:19:53;;;;;;;1.40;1.20;;;;;;;;;;10370109;28;20022;-62
2022/08/25 07:24:54;;;;;;;1.50;1.30;;;;;;;;;;10368183;28;20093;-63
2022/08/25 07:29:57;;;;;;;1.67;1.30;;;;;;;;;;10369257;28;20034;-61
2022/08/25 07:40:27;;;;;;;4.15;1.30;;;;;;;;;;10364026;28;20117;-61
2022/08/25 07:45:32;;;;;;;1.50;1.40;;;;;;;;;;10375329;28;20500;-60
2022/08/25 07:50:34;;;;;;;1.65;1.45;;;;;;;;;;10360480;28;20041;-62
2022/08/25 07:55:37;;;;;;;1.42;1.33;;;;;;;;;;10357413;28;20025;-59
2022/08/25 08:00:39;;;;;;;2.15;1.13;;;;;;;;;;10364408;28;20067;-60
2022/08/25 08:05:40;;;;;;;1.30;1.20;;;;;;;;;;10356354;28;20128;-59
2022/08/25 08:10:41;;;;;;;1.33;1.20;;;;;;;;;;10364827;28;20063;-59
2022/08/25 08:15:42;;;;;;;3.72;1.33;;;;;;;;;;10361455;28;20037;-58
2022/08/25 08:20:46;;;;;;;1.42;1.33;;;;;;;;;;10368353;28;20034;-59
2022/08/25 08:25:47;;;;;;;2.42;1.20;;;;;;;;;;10361890;28;20433;-59
2022/08/25 08:30:47;;;;;;;2.10;1.58;;;;;;;;;;10367178;28;20021;-59
2022/08/25 08:36:02;;;;;;;4.50;1.30;;;;;;;;;;10360075;28;20033;-59
2022/08/25 08:42:15;;;;;;;1.40;1.25;;;;;;;;;;10368728;28;20033;-59
2022/08/25 08:47:34;;;;;;;1.50;1.25;;;;;;;;;;10367164;28;20045;-60
2022/08/25 08:53:04;;;;;;;1.35;1.23;;;;;;;;;;10366917;28;20029;-59
2022/08/25 08:58:19;;;;;;;1.65;1.10;;;;;;;;;;10366531;28;20500;-59
2022/08/25 09:03:46;;;;;;;1.65;1.40;;;;;;;;;;10381420;28;20478;-60
2022/08/25 09:08:47;;;;;;;1.20;1.10;;;;;;;;;;10355549;28;20057;-59
2022/08/25 09:14:16;;;;;;;1.33;1.00;;;;;;;;;;10358462;28;20040;-59
2022/08/25 09:19:30;;;;;;;1.27;1.10;;;;;;;;;;10355678;28;20058;-60
2022/08/25 09:24:53;;;;;;;3.90;1.33;;;;;;;;;;10366157;28;20018;-59
2022/08/25 09:30:07;;;;;;;1.65;1.10;;;;;;;;;;10354499;28;20042;-59
2022/08/25 09:35:24;;;;;;;1.17;1.13;;;;;;;;;;10365456;28;20081;-58
2022/08/25 09:40:30;;;;;;;2.13;1.50;;;;;;;;;;10364060;28;20030;-59
2022/08/25 09:45:56;;;;;;;1.23;1.10;;;;;;;;;;10366617;28;20076;-59
2022/08/25 09:51:09;;;;;;;1.73;1.20;;;;;;;;;;10364024;28;20034;-59
2022/08/25 09:56:11;;;;;;;1.25;1.15;;;;;;;;;;10372356;28;20038;-59
2022/08/25 10:01:18;;;;;;;2.13;1.30;;;;;;;;;;10360141;28;20026;-59
2022/08/25 10:06:20;;;;;;;2.35;1.27;;;;;;;;;;10370886;28;20130;-59
2022/08/25 10:11:51;;;;;;;2.30;1.50;;;;;;;;;;10359995;28;20026;-59
2022/08/25 10:17:09;;;;;;;2.90;1.60;;;;;;;;;;10363964;28;20107;-59
2022/08/25 10:22:23;;;;;;;1.98;1.40;;;;;;;;;;10357630;28;20099;-59
2022/08/25 10:27:48;;;;;;;1.50;1.33;;;;;;;;;;10368491;28;20053;-59
2022/08/25 10:33:04;;;;;;;1.75;1.35;;;;;;;;;;10372344;28;20032;-58
2022/08/25 10:38:29;;;;;;;2.47;1.33;;;;;;;;;;10372871;28;20029;-59
2022/08/25 10:43:52;;;;;;;2.63;1.52;;;;;;;;;;10372350;28;20022;-59
2022/08/25 10:49:11;;;;;;;1.85;1.50;;;;;;;;;;10370906;28;20068;-59
2022/08/25 10:54:11;;;;;;;3.10;1.35;;;;;;;;;;10369896;28;20026;-59
2022/08/25 10:59:28;;;;;;;1.70;1.57;;;;;;;;;;10371803;28;20026;-58
2022/08/25 11:04:43;;;;;;;2.20;1.40;;;;;;;;;;10371040;28;20828;-59
2022/08/25 11:09:49;;;;;;;3.08;1.65;;;;;;;;;;10383240;28;20088;-59
2022/08/25 11:14:56;;;;;;;1.48;1.38;;;;;;;;;;10366895;28;20440;-58
2022/08/25 11:20:10;;;;;;;3.07;1.47;;;;;;;;;;10367773;28;20036;-58
2022/08/25 11:25:34;;;;;;;5.88;2.42;;;;;;;;;;10368042;28;20141;-59
2022/08/25 11:30:37;;;;;;;11.73;3.80;;;;;;;;;;10385053;28;20568;-59
2022/08/25 11:35:52;;;;;;;8.27;3.80;;;;;;;;;;10368981;28;20033;-59
2022/08/25 11:41:08;;;;;;;6.72;3.40;;;;;;;;;;10369287;28;20109;-60
2022/08/25 11:46:59;;;;;;;7.65;3.53;;;;;;;;;;10366453;28;20029;-58
2022/08/25 11:52:00;;;;;;;4.43;2.80;;;;;;;;;;10366814;28;20480;-59
2022/08/25 11:57:15;;;;;;;5.45;2.85;;;;;;;;;;10368961;28;20038;-58
2022/08/25 12:02:49;;;;;;;7.47;2.72;;;;;;;;;;10369362;28;20156;-59
2022/08/25 12:08:37;;;;;;;8.18;3.45;;;;;;;;;;10362702;28;20612;-58
2022/08/25 12:13:38;;;;;;;7.80;2.75;;;;;;;;;;10359259;28;20533;-60
2022/08/25 12:18:42;;;;;;;5.25;2.60;;;;;;;;;;10368702;28;20473;-58
2022/08/25 12:24:01;;;;;;;4.05;2.17;;;;;;;;;;10368932;28;20089;-59
2022/08/25 12:29:17;;;;;;;6.03;2.63;;;;;;;;;;10367598;28;20022;-58
2022/08/25 12:34:58;;;;;;;3.22;2.28;;;;;;;;;;10358853;28;20056;-59
2022/08/25 12:40:07;;;;;;;4.35;2.53;;;;;;;;;;10356030;28;20303;-60
2022/08/25 12:45:23;;;;;;;2.92;2.15;;;;;;;;;;10388406;28;20026;-58
2022/08/25 12:50:47;;;;;;;3.53;2.30;;;;;;;;;;10355966;28;20017;-59
2022/08/25 12:56:19;;;;;;;4.85;2.10;;;;;;;;;;10366263;28;20469;-59
2022/08/25 13:01:49;;;;;;;6.55;2.00;;;;;;;;;;10364439;28;20033;-59
2022/08/25 13:07:12;;;;;;;3.10;2.47;;;;;;;;;;10381062;28;20117;-59
2022/08/25 13:12:43;;;;;;;6.55;2.35;;;;;;;;;;10364373;28;20038;-60
2022/08/25 13:17:43;;;;;;;4.60;2.38;;;;;;;;;;10362036;28;20279;-58
2022/08/25 13:22:49;;;;;;;3.95;2.20;;;;;;;;;;10367607;28;20177;-59
2022/08/25 13:27:56;;;;;;;2.95;2.45;;;;;;;;;;10364453;28;20037;-60
2022/08/25 13:32:58;;;;;;;5.15;2.17;;;;;;;;;;10364406;28;20028;-60
2022/08/25 13:38:18;;;;;;;2.55;1.90;;;;;;;;;;10365244;28;20026;-58
2022/08/25 13:43:18;;;;;;;5.53;2.42;;;;;;;;;;10355231;28;20053;-58
2022/08/25 13:48:38;;;;;;;3.30;2.15;;;;;;;;;;10352999;28;20022;-59
2022/08/25 13:53:39;;;;;;;2.80;2.00;;;;;;;;;;10367517;28;20034;-58
2022/08/25 13:58:42;;;;;;;3.83;2.17;;;;;;;;;;10359974;28;20026;-58
2022/08/25 14:03:46;;;;;;;4.60;1.98;;;;;;;;;;10364533;28;20132;-59
2022/08/25 14:08:59;;;;;;;4.38;1.90;;;;;;;;;;10364971;28;20497;-58
2022/08/25 14:14:11;;;;;;;3.08;2.03;;;;;;;;;;10363465;28;20033;-59
2022/08/25 14:19:19;;;;;;;4.05;2.05;;;;;;;;;;10365316;28;20026;-58
2022/08/25 14:24:21;;;;;;;;;;;;;;;;;;10362713;28;20029;-59
2022/08/25 14:29:22;;;;;;;4.03;2.10;;;;;;;;;;10364285;28;19997;-58
2022/08/25 14:34:35;;;;;;;4.10;2.00;;;;;;;;;;10368273;28;20193;-58
2022/08/25 14:39:36;;;;;;;2.80;2.15;;;;;;;;;;10386303;28;20041;-58
2022/08/25 14:44:37;;;;;;;4.10;2.20;;;;;;;;;;10368033;28;20030;-58
2022/08/25 14:49:42;;;;;;;3.42;1.95;;;;;;;;;;10364944;28;20041;-58
2022/08/25 14:54:43;;;;;;;2.90;2.15;;;;;;;;;;10357009;28;20052;-59
2022/08/25 14:59:45;;;;;;;2.22;1.88;;;;;;;;;;10371346;28;20037;-58
2022/08/25 15:05:01;;;;;;;4.60;2.22;;;;;;;;;;10365435;28;20056;-59
2022/08/25 15:10:01;;;;;;;2.92;2.00;;;;;;;;;;10365584;28;20030;-58
2022/08/25 15:15:02;;;;;;;3.40;1.63;;;;;;;;;;10361427;28;20034;-58
2022/08/25 15:20:03;;;;;;;6.22;2.05;;;;;;;;;;10370611;28;20061;-58
2022/08/25 15:25:05;;;;;;;4.32;2.08;;;;;;;;;;10369871;28;20348;-58
2022/08/25 15:30:07;;;;;;;5.43;2.38;;;;;;;;;;10369627;28;20095;-58
2022/08/25 15:35:08;;;;;;;2.47;2.03;;;;;;;;;;10369604;28;20552;-59
2022/08/25 15:40:09;;;;;;;6.03;2.38;;;;;;;;;;10370280;28;20088;-58
2022/08/25 15:45:10;;;;;;;3.88;2.42;;;;;;;;;;10367778;28;20052;-58
2022/08/25 15:50:15;;;;;;;2.97;2.17;;;;;;;;;;10369198;28;20032;-59
2022/08/25 15:55:17;;;;;;;3.55;2.30;;;;;;;;;;10366582;28;20056;-59
2022/08/25 16:00:18;;;;;;;3.53;2.20;;;;;;;;;;10370507;28;20042;-60
2022/08/25 16:05:18;;;;;;;3.85;2.10;;;;;;;;;;10367888;28;20481;-58
2022/08/25 16:10:19;;;;;;;4.20;2.28;;;;;;;;;;10367211;28;20034;-58
2022/08/25 16:15:20;;;;;;;4.60;2.10;;;;;;;;;;10367840;28;20366;-58
2022/08/25 16:20:22;;;;;;;4.10;2.08;;;;;;;;;;10383446;28;20033;-58
2022/08/25 16:25:22;;;;;;;3.35;2.20;;;;;;;;;;10363276;28;20112;-59
2022/08/25 16:30:23;;;;;;;4.35;1.95;;;;;;;;;;10368141;28;20026;-59
2022/08/25 16:35:24;;;;;;;3.40;1.80;;;;;;;;;;10359403;28;20255;-58
2022/08/25 16:40:25;;;;;;;4.07;1.80;;;;;;;;;;10364396;28;20029;-58
2022/08/25 16:45:25;;;;;;;7.30;2.05;;;;;;;;;;10366705;28;20030;-58
2022/08/25 16:50:29;;;;;;;2.33;2.13;;;;;;;;;;10362458;28;20452;-59
2022/08/25 16:55:31;;;;;;;4.45;2.08;;;;;;;;;;10365091;28;20048;-59
2022/08/25 17:00:31;;;;;;;2.22;1.92;;;;;;;;;;10357439;28;20026;-58
2022/08/25 17:05:40;;;;;;;2.35;1.90;;;;;;;;;;10359054;28;20415;-59
2022/08/25 17:10:42;;;;;;;2.20;1.92;;;;;;;;;;10363715;28;20044;-59
2022/08/25 17:15:47;;;;;;;3.40;2.10;;;;;;;;;;10363735;28;20034;-59
2022/08/25 17:21:02;;;;;;;3.65;2.10;;;;;;;;;;10361936;28;20029;-59
2022/08/25 17:26:04;;;;;;;4.50;1.98;;;;;;;;;;10358924;28;20038;-58
2022/08/25 17:31:07;;;;;;;2.72;1.75;;;;;;;;;;10354075;28;20408;-58
2022/08/25 17:36:08;;;;;;;2.35;1.90;;;;;;;;;;10365714;28;20029;-58
2022/08/25 17:41:10;;;;;;;2.92;2.05;;;;;;;;;;10366341;28;20042;-58
2022/08/25 17:46:11;;;;;;;2.35;1.70;;;;;;;;;;10365064;28;20038;-58
2022/08/25 17:51:12;;;;;;;3.53;2.03;;;;;;;;;;10346694;28;20477;-58
2022/08/25 17:56:17;;;;;;;2.72;2.17;;;;;;;;;;10362331;28;20029;-58
2022/08/25 18:01:23;;;;;;;2.22;1.75;;;;;;;;;;10365168;28;20052;-58
2022/08/25 18:06:28;;;;;;;2.72;1.73;;;;;;;;;;10362104;28;20140;-58
2022/08/25 18:11:29;;;;;;;7.95;2.60;;;;;;;;;;10364797;28;20061;-59
2022/08/25 18:16:29;;;;;;;19.15;7.45;;;;;;;;;;10357094;28;20113;-58
2022/08/25 18:21:30;;;;;;;17.25;9.05;;;;;;;;;;10356258;28;20022;-57
2022/08/25 18:26:32;;;;;;;14.90;11.70;;;;;;;;;;10369023;28;20041;-58
2022/08/25 18:31:32;;;;;;;14.38;9.60;;;;;;;;;;10369326;28;20462;-58
2022/08/25 18:36:33;;;;;;;11.85;7.18;;;;;;;;;;10369399;28;20030;-56
2022/08/25 18:41:40;;;;;;;12.70;6.53;;;;;;;;;;10367651;28;20022;-56
2022/08/25 18:46:41;;;;;;;10.27;5.28;;;;;;;;;;10368286;28;20117;-56
2022/08/25 18:51:43;;;;;;;7.43;3.75;;;;;;;;;;10367907;28;20038;-55
2022/08/25 18:56:44;;;;;;;8.40;4.00;;;;;;;;;;10365190;28;20099;-56
2022/08/25 19:01:45;;;;;;;5.70;3.85;;;;;;;;;;10368278;28;20025;-56
2022/08/25 19:06:46;;;;;;;17.75;4.88;;;;;;;;;;10330266;28;1131527;-56
2022/08/25 19:11:47;;;;;;;7.30;4.50;;;;;;;;;;10368560;28;20101;-55
2022/08/25 19:16:50;;;;;;;8.93;4.90;;;;;;;;;;10354172;28;20513;-56
2022/08/25 19:21:51;;;;;;;9.38;4.50;;;;;;;;;;10364235;28;20041;-55
2022/08/25 19:26:51;;;;;;;9.70;5.00;;;;;;;;;;10368457;28;20045;-59
2022/08/25 19:31:52;;;;;;;14.65;4.55;;;;;;;;;;10369870;28;20054;-59
2022/08/25 19:36:54;;;;;;;6.97;4.13;;;;;;;;;;10368092;28;20041;-60
2022/08/25 19:41:55;;;;;;;10.68;4.70;;;;;;;;;;10368117;28;20395;-60
2022/08/25 19:46:56;;;;;;;7.30;4.10;;;;;;;;;;10363855;28;20041;-60
2022/08/25 19:51:57;;;;;;;8.98;4.78;;;;;;;;;;10362352;28;20211;-59
2022/08/25 19:56:58;;;;;;;6.65;4.05;;;;;;;;;;10368407;28;20035;-59
2022/08/25 20:01:59;;;;;;;7.43;4.45;;;;;;;;;;10368731;28;20141;-59
2022/08/25 20:06:59;;;;;;;12.23;4.03;;;;;;;;;;10356369;28;20442;-59
2022/08/25 20:12:00;;;;;;;12.95;4.20;;;;;;;;;;10364785;28;20069;-59
2022/08/25 20:17:02;;;;;;;6.22;3.85;;;;;;;;;;10355034;28;20038;-59
2022/08/25 20:22:03;;;;;;;6.63;4.20;;;;;;;;;;10367809;28;20041;-60
2022/08/25 20:27:04;;;;;;;7.43;4.05;;;;;;;;;;10367796;28;20037;-59
2022/08/25 20:32:05;;;;;;;9.52;4.30;;;;;;;;;;10366556;28;20033;-59
2022/08/25 20:37:06;;;;;;;7.68;3.72;;;;;;;;;;10367224;28;20045;-59
2022/08/25 20:42:07;;;;;;;5.50;3.70;;;;;;;;;;10367318;28;20026;-59
2022/08/25 20:47:09;;;;;;;7.05;4.25;;;;;;;;;;10368267;28;20022;-59
2022/08/25 20:52:10;;;;;;;4.53;3.40;;;;;;;;;;10367106;28;20405;-59
2022/08/25 20:57:11;;;;;;;5.75;3.78;;;;;;;;;;10366089;28;20044;-60
2022/08/25 21:02:12;;;;;;;5.40;3.58;;;;;;;;;;10368075;28;20018;-59
2022/08/25 21:07:13;;;;;;;7.30;3.88;;;;;;;;;;10366680;28;20061;-59
2022/08/25 21:12:14;;;;;;;6.95;3.72;;;;;;;;;;10351662;28;20033;-55
2022/08/25 21:17:16;;;;;;;6.80;3.65;;;;;;;;;;10355440;28;20037;-55
2022/08/25 21:22:16;;;;;;;5.38;2.90;;;;;;;;;;10362113;28;20087;-53
2022/08/25 21:27:17;;;;;;;17.35;3.63;;;;;;;;;;10360076;28;20039;-61
2022/08/25 21:32:18;;;;;;;26.75;3.78;;;;;;;;;;10368262;28;20025;-59
2022/08/25 21:37:19;;;;;;;34.70;4.15;;;;;;;;;;10378911;28;20383;-59
2022/08/25 21:42:21;;;;;;;20.15;4.22;;;;;;;;;;10364243;28;20026;-59
2022/08/25 21:47:21;;;;;;;44.35;4.63;;;;;;;;;;10364971;28;20049;-59
2022/08/25 21:52:22;;;;;;;32.60;4.30;;;;;;;;;;10365987;28;20038;-59
2022/08/25 21:57:23;;;;;;;22.38;4.07;;;;;;;;;;10365016;28;20041;-59
2022/08/25 22:02:24;;;;;;;28.95;4.85;;;;;;;;;;10366670;28;20018;-58
2022/08/25 22:07:25;;;;;;;13.13;3.88;;;;;;;;;;10365454;28;20072;-59
2022/08/25 22:12:26;;;;;;;29.55;4.53;;;;;;;;;;10359627;28;20046;-59
2022/08/25 22:17:27;;;;;;;23.15;4.10;;;;;;;;;;10365858;28;20053;-59
2022/08/25 22:22:27;;;;;;;23.98;4.18;;;;;;;;;;10366156;28;20029;-60
2022/08/25 22:27:29;;;;;;;24.08;4.20;;;;;;;;;;10365867;28;20026;-60
2022/08/25 22:32:29;;;;;;;15.32;3.10;;;;;;;;;;10364394;28;20076;-61
2022/08/25 22:37:30;;;;;;;14.93;3.00;;;;;;;;;;10365089;28;20034;-61
2022/08/25 22:42:30;;;;;;;27.17;3.90;;;;;;;;;;10365333;28;20037;-61
2022/08/25 22:47:31;;;;;;;11.07;3.35;;;;;;;;;;10365017;28;20031;-58
2022/08/25 22:52:32;;;;;;;19.98;3.60;;;;;;;;;;10365400;28;20041;-59
2022/08/25 22:57:34;;;;;;;14.65;4.13;;;;;;;;;;10372743;28;20466;-58
2022/08/25 23:02:34;;;;;;;10.70;3.03;;;;;;;;;;10372156;28;20429;-58
2022/08/25 23:07:37;;;;;;;19.25;3.60;;;;;;;;;;10372491;28;20030;-57
2022/08/25 23:12:39;;;;;;;6.40;3.10;;;;;;;;;;10365539;28;20052;-58
2022/08/25 23:17:40;;;;;;;5.85;3.10;;;;;;;;;;10371740;28;20493;-57
2022/08/25 23:22:41;;;;;;;10.70;3.60;;;;;;;;;;10371460;28;20080;-58
2022/08/25 23:27:41;;;;;;;6.68;2.67;;;;;;;;;;10371561;28;20030;-57
2022/08/25 23:32:42;;;;;;;13.00;3.45;;;;;;;;;;10370897;28;20036;-56
2022/08/25 23:37:42;;;;;;;7.95;3.28;;;;;;;;;;10370911;28;20477;-59
2022/08/25 23:42:43;;;;;;;5.82;2.72;;;;;;;;;;10371009;28;20485;-59
2022/08/25 23:47:43;;;;;;;5.70;2.60;;;;;;;;;;10370053;28;20041;-59
2022/08/25 23:52:44;;;;;;;9.55;2.83;;;;;;;;;;10370524;28;20142;-59
2022/08/25 23:57:45;;;;;;;6.63;2.83;;;;;;;;;;10370048;28;20092;-59
